Time;durP1;ratioP1;P1;durP2;ratioP2;P2;SDS_P1;SDS_P2;PMS_P1;PMS_P2;Temp;Humidity;BMP_temperature;BMP_pressure;BME280_temperature;BME280_humidity;BME280_pressure;Samples;Min_cycle;Max_cycle;Signal;HPM_P1;HPM_P2
2023/05/09 00:02:33;;;;;;;;;;;;;;;12.02;100.00;98064.34;18567751;31;19996;-57
2023/05/09 00:12:36;;;;;;;;;;;;;;;11.92;100.00;98046.16;18567423;32;20340;-57
2023/05/09 00:22:39;;;;;;;;;;;;;;;11.71;100.00;98037.16;18552654;32;20011;-58
2023/05/09 00:32:42;;;;;;;;;;;;;;;11.50;100.00;98015.44;18566264;32;19979;-57
2023/05/09 00:42:45;;;;;;;;;;;;;;;11.32;100.00;98002.41;18565076;32;19964;-56
2023/05/09 00:52:47;;;;;;;;;;;;;;;11.17;100.00;97995.87;18564734;32;20279;-57
2023/05/09 01:02:52;;;;;;;;;;;;;;;11.06;100.00;97996.09;18563686;32;19964;-58
2023/05/09 01:13:03;;;;;;;;;;;;;;;10.93;100.00;97998.19;18549606;32;19961;-57
2023/05/09 01:23:12;;;;;;;;;;;;;;;10.81;100.00;97984.09;18563031;32;19953;-57
2023/05/09 01:33:17;;;;;;;;;;;;;;;10.73;100.00;97971.91;18562490;32;19992;-56
2023/05/09 01:43:20;;;;;;;;;;;;;;;10.68;100.00;97974.56;18562020;32;20007;-57
2023/05/09 01:53:23;;;;;;;;;;;;;;;10.67;100.00;97972.94;18561441;31;19988;-58
2023/05/09 02:03:26;;;;;;;;;;;;;;;10.61;100.00;97949.66;18561039;32;20302;-57
2023/05/09 02:13:28;;;;;;;;;;;;;;;10.59;100.00;97935.56;18565869;32;19973;-56
2023/05/09 02:23:30;;;;;;;;;;;;;;;10.64;100.00;97941.00;18573988;32;19990;-58
2023/05/09 02:33:33;;;;;;;;;;;;;;;10.70;100.00;97936.44;18559296;32;19993;-57
2023/05/09 02:43:36;;;;;;;;;;;;;;;10.73;100.00;97938.59;18558157;32;20029;-57
2023/05/09 02:53:38;;;;;;;;;;;;;;;10.73;100.00;97925.91;18571948;32;20269;-58
2023/05/09 03:03:40;;;;;;;;;;;;;;;10.67;100.00;97930.50;18544230;32;20281;-57
2023/05/09 03:13:43;;;;;;;;;;;;;;;10.66;100.00;97928.03;18570990;32;19974;-57
2023/05/09 03:23:45;;;;;;;;;;;;;;;10.66;100.00;97917.22;18555318;32;19952;-57
2023/05/09 03:33:47;;;;;;;;;;;;;;;10.66;100.00;97912.63;18569678;32;19971;-56
2023/05/09 03:43:49;;;;;;;;;;;;;;;10.66;100.00;97904.53;18568635;32;19969;-57
2023/05/09 03:53:52;;;;;;;;;;;;;;;10.70;100.00;97917.50;18568514;32;19949;-57
2023/05/09 04:03:56;;;;;;;;;;;;;;;10.74;100.00;97921.31;18553883;32;20404;-56
2023/05/09 04:13:58;;;;;;;;;;;;;;;10.91;100.00;97926.50;18567153;32;19957;-57
2023/05/09 04:24:01;;;;;;;;;;;;;;;11.11;100.00;97923.03;18566869;32;19988;-56
2023/05/09 04:34:03;;;;;;;;;;;;;;;11.34;100.00;97902.78;18550693;31;19952;-57
2023/05/09 04:44:06;;;;;;;;;;;;;;;11.48;100.00;97905.78;18565496;32;19975;-58
2023/05/09 04:54:09;;;;;;;;;;;;;;;11.55;100.00;97889.25;18564697;32;19968;-56
2023/05/09 05:04:11;;;;;;;;;;;;;;;11.62;100.00;97895.22;18564240;32;19983;-57
2023/05/09 05:14:14;;;;;;;;;;;;;;;11.75;100.00;97893.88;18549337;32;20269;-58
2023/05/09 05:24:16;;;;;;;;;;;;;;;11.88;100.00;97885.19;18548911;32;19975;-58
2023/05/09 05:34:19;;;;;;;;;;;;;;;12.07;100.00;97890.84;18562056;31;19961;-57
2023/05/09 05:44:22;;;;;;;;;;;;;;;12.31;100.00;97885.66;18547620;32;19961;-58
2023/05/09 05:54:24;;;;;;;;;;;;;;;12.61;100.00;97878.50;18547096;32;19990;-58
2023/05/09 06:04:27;;;;;;;;;;;;;;;13.01;100.00;97873.94;18547041;32;19993;-58
2023/05/09 06:14:30;;;;;;;;;;;;;;;13.30;100.00;97875.13;18560793;32;20004;-58
2023/05/09 06:24:32;;;;;;;;;;;;;;;13.59;100.00;97858.06;18546204;32;19971;-58
2023/05/09 06:34:38;;;;;;;;;;;;;;;13.82;100.00;97849.16;18560014;31;20030;-58
2023/05/09 06:44:42;;;;;;;;;;;;;;;14.41;100.00;97836.28;18560013;32;19979;-58
2023/05/09 06:54:44;;;;;;;;;;;;;;;15.15;100.00;97821.41;18559623;32;20059;-58
2023/05/09 07:04:47;;;;;;;;;;;;;;;15.49;100.00;97809.44;18569855;32;19948;-58
2023/05/09 07:14:50;;;;;;;;;;;;;;;15.89;100.00;97800.84;18570987;32;19945;-58
2023/05/09 07:24:53;;;;;;;;;;;;;;;16.40;100.00;97793.56;18570489;32;20009;-58
2023/05/09 07:34:55;;;;;;;;;;;;;;;16.81;100.00;97780.94;18569463;31;20287;-58
2023/05/09 07:44:59;;;;;;;;;;;;;;;17.43;100.00;97752.97;18568833;32;19997;-58
2023/05/09 07:55:01;;;;;;;;;;;;;;;17.95;100.00;97747.78;18568322;32;19953;-58
2023/05/09 08:05:04;;;;;;;;;;;;;;;18.34;100.00;97737.09;18567967;32;19961;-59
2023/05/09 08:15:07;;;;;;;;;;;;;;;18.97;100.00;97734.09;18566260;31;20276;-58
2023/05/09 08:25:11;;;;;;;;;;;;;;;19.30;100.00;97712.41;18566553;32;19975;-58
2023/05/09 08:35:14;;;;;;;;;;;;;;;19.72;100.00;97703.59;18565554;32;19956;-58
2023/05/09 08:45:22;;;;;;;;;;;;;;;20.13;100.00;97685.63;18551004;32;19949;-59
2023/05/09 08:55:26;;;;;;;;;;;;;;;20.54;100.00;97666.78;18550660;32;20324;-58
2023/05/09 09:05:39;;;;;;;;;;;;;;;20.85;100.00;97653.75;18550064;32;20012;-59
2023/05/09 09:15:44;;;;;;;;;;;;;;;21.23;100.00;97641.72;18563516;32;20294;-58
2023/05/09 09:25:47;;;;;;;;;;;;;;;21.49;97.11;97633.16;18548048;32;19957;-58
2023/05/09 09:35:51;;;;;;;;;;;;;;;21.76;99.10;97628.13;18547939;32;19998;-58
2023/05/09 09:45:53;;;;;;;;;;;;;;;22.34;90.92;97619.69;18562086;32;20013;-58
2023/05/09 09:55:56;;;;;;;;;;;;;;;22.87;94.51;97607.75;18561715;32;19971;-58
2023/05/09 10:06:00;;;;;;;;;;;;;;;22.87;84.74;97585.69;18560857;32;19956;-58
2023/05/09 10:16:05;;;;;;;;;;;;;;;23.36;89.22;97566.09;18560752;32;19988;-58
2023/05/09 10:26:22;;;;;;;;;;;;;;;23.50;85.85;97549.06;18560413;32;20376;-58
2023/05/09 10:36:25;;;;;;;;;;;;;;;23.82;79.56;97529.69;18566928;31;19982;-58
2023/05/09 10:46:28;;;;;;;;;;;;;;;23.97;83.22;97515.03;18558605;32;20333;-59
2023/05/09 10:56:33;;;;;;;;;;;;;;;23.85;77.55;97507.66;18571937;31;19967;-57
2023/05/09 11:06:48;;;;;;;;;;;;;;;24.23;73.17;97485.97;18571460;32;19995;-58
2023/05/09 11:16:58;;;;;;;;;;;;;;;24.03;73.67;97463.06;18570964;32;20008;-58
2023/05/09 11:27:04;;;;;;;;;;;;;;;24.50;78.08;97452.88;18570294;32;19963;-58
2023/05/09 11:37:16;;;;;;;;;;;;;;;25.03;72.16;97430.88;18555324;31;20004;-57
2023/05/09 11:47:20;;;;;;;;;;;;;;;25.70;70.62;97415.63;18568344;32;20469;-57
2023/05/09 11:57:23;;;;;;;;;;;;;;;25.63;63.20;97396.16;18554170;31;20042;-57
2023/05/09 12:07:28;;;;;;;;;;;;;;;25.50;61.07;97380.97;18567893;32;19971;-56
2023/05/09 12:17:31;;;;;;;;;;;;;;;24.72;60.65;97362.84;18567133;32;20377;-58
2023/05/09 12:27:34;;;;;;;;;;;;;;;24.48;66.15;97355.75;18566671;32;19964;-57
2023/05/09 12:37:38;;;;;;;;;;;;;;;24.24;66.48;97340.34;18565315;31;19956;-57
2023/05/09 12:47:41;;;;;;;;;;;;;;;24.03;71.18;97325.00;18538206;31;19969;-57
2023/05/09 12:57:56;;;;;;;;;;;;;;;23.86;75.24;97315.22;18564454;32;20371;-57
2023/05/09 13:07:59;;;;;;;;;;;;;;;23.57;66.03;97300.88;18564260;32;19964;-57
2023/05/09 13:18:01;;;;;;;;;;;;;;;22.95;79.14;97286.97;18563357;32;19952;-57
2023/05/09 13:28:04;;;;;;;;;;;;;;;22.66;97.48;97278.09;18562850;32;20337;-57
2023/05/09 13:38:07;;;;;;;;;;;;;;;22.46;100.00;97260.69;18561688;32;19994;-58
2023/05/09 13:48:10;;;;;;;;;;;;;;;22.00;100.00;97255.66;18547584;32;19975;-57
2023/05/09 13:58:13;;;;;;;;;;;;;;;21.21;100.00;97248.06;18547551;32;19993;-57
2023/05/09 14:08:16;;;;;;;;;;;;;;;20.15;100.00;97279.84;18560478;32;19974;-58
2023/05/09 14:18:20;;;;;;;;;;;;;;;18.76;100.00;97301.13;18546654;32;19957;-56
2023/05/09 14:28:24;;;;;;;;;;;;;;;18.05;100.00;97278.06;18560848;32;19985;-56
2023/05/09 14:38:28;;;;;;;;;;;;;;;18.14;100.00;97253.38;18559577;32;19975;-56
2023/05/09 14:48:35;;;;;;;;;;;;;;;18.22;100.00;97250.59;18560187;32;19987;-57
2023/05/09 14:58:42;;;;;;;;;;;;;;;18.21;100.00;97262.69;18545310;32;19992;-56
2023/05/09 15:08:45;;;;;;;;;;;;;;;17.79;100.00;97262.50;18545097;32;20005;-57
2023/05/09 15:18:48;;;;;;;;;;;;;;;17.67;100.00;97273.31;18560983;32;20348;-57
2023/05/09 15:28:51;;;;;;;;;;;;;;;17.66;100.00;97275.25;18569974;31;19944;-56
2023/05/09 15:38:54;;;;;;;;;;;;;;;17.63;100.00;97275.91;18555283;31;19993;-55
2023/05/09 15:48:57;;;;;;;;;;;;;;;17.52;100.00;97269.97;18569084;32;19979;-56
2023/05/09 15:58:59;;;;;;;;;;;;;;;17.47;100.00;97261.16;18568273;32;19993;-57
2023/05/09 16:09:03;;;;;;;;;;;;;;;17.51;100.00;97268.34;18568479;32;19956;-57
2023/05/09 16:19:06;;;;;;;;;;;;;;;17.54;100.00;97262.28;18566999;31;19995;-57
2023/05/09 16:29:09;;;;;;;;;;;;;;;17.25;100.00;97249.28;18566622;32;19964;-57
2023/05/09 16:39:12;;;;;;;;;;;;;;;16.96;100.00;97241.78;18565627;32;19956;-56
2023/05/09 16:49:14;;;;;;;;;;;;;;;16.78;100.00;97234.34;18565528;32;19953;-57
2023/05/09 16:59:18;;;;;;;;;;;;;;;16.62;100.00;97232.44;18564837;32;19991;-56
2023/05/09 17:09:21;;;;;;;;;;;;;;;16.46;100.00;97224.72;18564130;32;19994;-57
2023/05/09 17:19:24;;;;;;;;;;;;;;;16.35;100.00;97223.41;18535997;31;20351;-57
2023/05/09 17:29:29;;;;;;;;;;;;;;;16.19;100.00;97223.88;18562955;32;19960;-58
2023/05/09 17:39:32;;;;;;;;;;;;;;;15.89;100.00;97250.88;18562390;32;19957;-57
2023/05/09 17:49:35;;;;;;;;;;;;;;;15.59;100.00;97242.41;18547737;32;19996;-56
2023/05/09 17:59:40;;;;;;;;;;;;;;;15.46;100.00;97232.41;18561690;32;20059;-58
2023/05/09 18:09:43;;;;;;;;;;;;;;;15.30;100.00;97244.81;18560813;31;19967;-58
2023/05/09 18:19:45;;;;;;;;;;;;;;;15.13;100.00;97234.59;18546746;32;19965;-57
2023/05/09 18:29:48;;;;;;;;;;;;;;;14.88;100.00;97234.09;18560844;32;20020;-57
2023/05/09 18:39:51;;;;;;;;;;;;;;;14.70;100.00;97242.16;18560044;32;19961;-57
2023/05/09 18:49:54;;;;;;;;;;;;;;;14.53;100.00;97250.13;18560290;32;19953;-56
2023/05/09 18:59:58;;;;;;;;;;;;;;;14.30;100.00;97258.19;18555305;32;20019;-57
2023/05/09 19:10:03;;;;;;;;;;;;;;;14.15;100.00;97261.25;18571237;32;20280;-57
2023/05/09 19:20:07;;;;;;;;;;;;;;;14.05;100.00;97271.22;18556963;32;19944;-56
2023/05/09 19:30:13;;;;;;;;;;;;;;;13.95;100.00;97278.75;18570373;32;19957;-57
2023/05/09 19:40:17;;;;;;;;;;;;;;;13.85;100.00;97288.75;18555226;32;20364;-57
2023/05/09 19:50:19;;;;;;;;;;;;;;;13.79;100.00;97302.72;18569599;32;19969;-58
2023/05/09 20:00:22;;;;;;;;;;;;;;;13.71;100.00;97317.78;18541514;31;19949;-57
2023/05/09 20:10:25;;;;;;;;;;;;;;;13.65;100.00;97322.50;18567328;32;20268;-58
2023/05/09 20:20:31;;;;;;;;;;;;;;;13.61;100.00;97320.66;18553317;32;20033;-57
2023/05/09 20:30:33;;;;;;;;;;;;;;;13.58;100.00;97322.09;18552456;32;20340;-58
2023/05/09 20:40:36;;;;;;;;;;;;;;;13.56;100.00;97324.28;18566230;32;19960;-58
2023/05/09 20:50:39;;;;;;;;;;;;;;;13.53;100.00;97325.69;18550889;32;20363;-58
2023/05/09 21:00:45;;;;;;;;;;;;;;;13.48;100.00;97330.41;18564717;32;20346;-58
2023/05/09 21:10:54;;;;;;;;;;;;;;;13.44;100.00;97335.63;18549975;32;19964;-58
2023/05/09 21:21:07;;;;;;;;;;;;;;;13.37;100.00;97329.78;18549059;32;19969;-57
2023/05/09 21:31:09;;;;;;;;;;;;;;;13.27;100.00;97341.56;18562969;32;19990;-58
2023/05/09 21:41:12;;;;;;;;;;;;;;;13.22;100.00;97341.66;18548136;32;19965;-58
2023/05/09 21:51:15;;;;;;;;;;;;;;;13.17;100.00;97350.69;18561605;32;19952;-58
2023/05/09 22:01:17;;;;;;;;;;;;;;;13.14;100.00;97370.28;18561342;32;19971;-58
2023/05/09 22:11:24;;;;;;;;;;;;;;;13.07;100.00;97380.69;18547151;32;19989;-57
2023/05/09 22:21:40;;;;;;;;;;;;;;;12.94;100.00;97382.22;18561057;32;19987;-57
2023/05/09 22:31:43;;;;;;;;;;;;;;;12.83;100.00;97383.47;18553250;32;20288;-57
2023/05/09 22:41:45;;;;;;;;;;;;;;;12.67;100.00;97393.69;18558856;31;19997;-57
2023/05/09 22:51:47;;;;;;;;;;;;;;;12.58;100.00;97390.00;18572735;32;20296;-57
2023/05/09 23:01:51;;;;;;;;;;;;;;;12.51;100.00;97412.88;18557749;32;19953;-56
2023/05/09 23:11:54;;;;;;;;;;;;;;;12.51;100.00;97403.91;18571446;32;19991;-57
2023/05/09 23:21:58;;;;;;;;;;;;;;;12.33;100.00;97410.91;18556811;32;19978;-56
2023/05/09 23:32:00;;;;;;;;;;;;;;;12.28;100.00;97398.22;18556040;32;19956;-57
2023/05/09 23:42:03;;;;;;;;;;;;;;;12.24;100.00;97412.63;18569014;32;20004;-58
2023/05/09 23:52:06;;;;;;;;;;;;;;;12.10;100.00;97405.19;18554679;32;19991;-58
